• Join FlightAware (Why Join?)
  • Login
  • US Flag 
05:11PM EDT


 

Airport Tracker/Info


-or-


 

Live Flight TrackerFlight Track Log ✈ EGF4393 ✈ 09-Jun-2013 ✈ KORD - KCWA

Flight Track Log - Related Links

Times and Time Zones

All times are in EDT time to prevent confusion due to time zone crossing. See the EGF4393 flight status page for this flight to view local times or setup timezone preferences in your user account.

Time Position Orientation Groundspeed Altitude Reporting Facility
EDT Latitude Longitude Course Direction KTS MPH feet Rate Location/Type
03:40PM 41.9319 -87.9003 352° North 156 180 1,900  Level Chicago Center
03:41PM 41.9414 -87.8331 79° East 211 243 4,000 1,740 Climbing Chicago Center
03:42PM 42.0128 -87.8300 North 256 295 5,600 1,920 Climbing Chicago Center
03:43PM 42.0911 -87.8122 10° North 283 326 8,000 2,520 Climbing Chicago Center
03:44PM 42.1631 -87.7783 19° North 277 319 10,900 2,400 Climbing Chicago Center
03:46PM 42.4770 -88.0621 352° North  Level FlightAware Approximate
03:46PM 42.2522 -87.7764 North 274 315 13,000  Level Chicago Center
03:47PM 42.3322 -87.8069 344° North 307 353 13,800 720 Climbing Chicago Center
03:48PM 42.4161 -87.8689 331° Northwest 340 391 14,600 720 Climbing Chicago Center
03:49PM 42.5097 -87.9369 332° Northwest 373 429 15,300 660 Climbing Chicago Center
03:50PM 42.6094 -88.0053 333° Northwest 401 461 16,000 720 Climbing Chicago Center
03:51PM 42.7394 -88.0483 346° North 412 474 16,800 720 Climbing Chicago Center
03:52PM 42.8550 -88.0883 346° North 424 488 17,500 660 Climbing Chicago Center
03:53PM 42.9703 -88.1300 345° North 427 491 18,200 780 Climbing Chicago Center
03:54PM 43.0814 -88.1894 339° North 429 494 19,200 1,020 Climbing Chicago Center
03:55PM 43.1814 -88.2736 328° Northwest 424 488 20,400 960 Climbing Chicago Center
03:56PM 43.2997 -88.3747 328° Northwest 429 494 21,200 720 Climbing Chicago Center
03:57PM 43.4050 -88.4639 328° Northwest 436 502 21,900 360 Climbing Chicago Center
03:58PM 43.5033 -88.5478 328° Northwest 443 510 22,000  Climbing Chicago Center
03:59PM 43.6281 -88.6550 328° Northwest 452 520 22,000 -360 Level Chicago Center
04:01PM 43.8261 -88.8256 328° Northwest 418 481 20,900 -1,020 Descending Chicago Center
04:02PM 43.9286 -88.9153 328° Northwest 429 494 19,000 -1,860 Descending Chicago Center
04:03PM 44.0303 -89.0033 328° Northwest 432 497 17,100 -2,040 Descending Chicago Center
04:04PM 44.1422 -89.1014 328° Northwest 410 472 14,800 -1,980 Descending Chicago Center
04:05PM 44.1811 -89.1381 326° Northwest 414 476 14,200 -540 Descending Minneapolis Center
04:06PM 44.2794 -89.2239 328° Northwest 401 461 14,000 -960 Descending Minneapolis Center
04:07PM 44.3725 -89.3056 328° Northwest 381 438 12,300 -1,740 Descending Minneapolis Center
04:08PM 44.4572 -89.3806 328° Northwest 350 403 10,500 -1,680 Descending Minneapolis Center
04:09PM 44.5328 -89.4483 327° Northwest 311 358 8,900 -1,800 Descending Minneapolis Center
04:10PM 44.6033 -89.5117 327° Northwest 290 334 6,800 -2,040 Descending Minneapolis Center
04:11PM 44.6711 -89.5731 327° Northwest 281 323 4,700 -1,860 Descending Minneapolis Center
04:12PM 44.7275 -89.6461 317° Northwest 267 307 3,000 -1,020 Descending Minneapolis Center
04:13PM 44.7350 -89.7269 277° West 222 255 2,700 -540 Descending Minneapolis Center
04:14PM 44.7717 -89.7308 356° North 163 188 2,000 -420 Descending Minneapolis Center
04:15PM 44.7806 -89.6792 76° East 156 180 1,900 -120 Descending Minneapolis Center